Olivehurst, California
Current Conditions -  °F | °C
As of 1:24 AM on Monday 24 Nov 2014 (Local Time) from KMYV Reporting Station
Haze Haze  
Wind Chill: 38°   Ceiling: Unl
Heat Index: 38°   Visibility: 1.5mi
Dew Point: 38°   Wind: 0mph
Humidity: 100%   Direction: NA
Pressure: 30.34"   Gusts: NA
Location:  39.1°N, 121.55°W
Report Text: KMYV 240924Z AUTO 00000KT 1 1/2SM BR CLR 03/03 A3034 RMK AO2 VIS 1/2V5 T00330033
Loading
Personal Weather Stations






























Interactive Weather Map New forecast layout! Learn more

10-Day Weather Forecast

Advertisements
Track Severe Weather on mobile